sensor_id;sensor_type;location;lat;lon;timestamp;pressure;altitude;pressure_sealevel;temperature;humidity
24013;BME280;12220;50.194;18.948;2023-11-19T00:00:39;102444.62;;;2.37;74.25
24013;BME280;12220;50.194;18.948;2023-11-19T00:22:19;102431.19;;;2.28;73.80
24013;BME280;12220;50.194;18.948;2023-11-19T00:24:23;102433.05;;;2.20;73.79
24013;BME280;12220;50.194;18.948;2023-11-19T00:43:34;102417.84;;;2.08;74.30
24013;BME280;12220;50.194;18.948;2023-11-19T00:45:35;102422.35;;;2.07;74.27
24013;BME280;12220;50.194;18.948;2023-11-19T00:47:41;102428.65;;;2.06;74.28
24013;BME280;12220;50.194;18.948;2023-11-19T00:54:28;102413.30;;;2.13;74.28
24013;BME280;12220;50.194;18.948;2023-11-19T00:56:30;102414.21;;;2.11;74.25
24013;BME280;12220;50.194;18.948;2023-11-19T00:58:42;102411.52;;;2.09;74.27
24013;BME280;12220;50.194;18.948;2023-11-19T01:05:37;102418.73;;;2.10;74.22
24013;BME280;12220;50.194;18.948;2023-11-19T01:14:31;102417.84;;;2.06;74.17
24013;BME280;12220;50.194;18.948;2023-11-19T01:16:33;102406.18;;;2.03;74.13
24013;BME280;12220;50.194;18.948;2023-11-19T01:18:34;102400.80;;;2.01;74.03
24013;BME280;12220;50.194;18.948;2023-11-19T01:20:36;102390.01;;;1.98;74.06
24013;BME280;12220;50.194;18.948;2023-11-19T01:25:19;102387.29;;;2.00;74.24
24013;BME280;12220;50.194;18.948;2023-11-19T01:27:31;102386.38;;;1.99;74.31
24013;BME280;12220;50.194;18.948;2023-11-19T01:34:29;102353.95;;;2.01;74.21
24013;BME280;12220;50.194;18.948;2023-11-19T01:38:57;102351.26;;;1.98;74.18
24013;BME280;12220;50.194;18.948;2023-11-19T01:50:48;102331.62;;;1.79;73.86
24013;BME280;12220;50.194;18.948;2023-11-19T01:54:10;102322.67;;;1.73;73.98
24013;BME280;12220;50.194;18.948;2023-11-19T01:58:32;102316.34;;;1.73;74.05
24013;BME280;12220;50.194;18.948;2023-11-19T02:05:27;102307.33;;;1.76;74.07
24013;BME280;12220;50.194;18.948;2023-11-19T02:07:29;102311.83;;;1.77;74.12
24013;BME280;12220;50.194;18.948;2023-11-19T02:09:51;102285.76;;;1.72;74.08
24013;BME280;12220;50.194;18.948;2023-11-19T02:19:01;102260.56;;;1.69;74.11
24013;BME280;12220;50.194;18.948;2023-11-19T02:23:33;101945.49;;;-0.05;73.94
24013;BME280;12220;50.194;18.948;2023-11-19T02:28:08;102220.12;;;1.63;73.76
24013;BME280;12220;50.194;18.948;2023-11-19T02:30:27;102223.73;;;1.60;73.82
24013;BME280;12220;50.194;18.948;2023-11-19T02:32:45;102221.06;;;1.57;73.79
24013;BME280;12220;50.194;18.948;2023-11-19T02:34:53;102216.48;;;1.67;73.70
24013;BME280;12220;50.194;18.948;2023-11-19T02:36:57;102225.59;;;1.55;73.77
24013;BME280;12220;50.194;18.948;2023-11-19T02:38:59;102219.32;;;1.50;73.50
24013;BME280;12220;50.194;18.948;2023-11-19T02:43:24;102203.30;;;1.31;73.27
24013;BME280;12220;50.194;18.948;2023-11-19T02:45:26;102199.73;;;1.26;73.48
24013;BME280;12220;50.194;18.948;2023-11-19T02:52:22;102177.33;;;1.15;73.71
24013;BME280;12220;50.194;18.948;2023-11-19T02:56:50;102175.55;;;1.15;73.99
24013;BME280;12220;50.194;18.948;2023-11-19T02:59:00;102178.25;;;1.15;74.03
24013;BME280;12220;50.194;18.948;2023-11-19T03:03:46;102154.83;;;1.17;73.98
24013;BME280;12220;50.194;18.948;2023-11-19T03:05:59;102165.62;;;1.19;74.05
24013;BME280;12220;50.194;18.948;2023-11-19T03:12:55;102182.72;;;1.19;73.61
24013;BME280;12220;50.194;18.948;2023-11-19T03:15:03;102177.33;;;1.15;73.80
24013;BME280;12220;50.194;18.948;2023-11-19T03:19:31;102170.20;;;1.11;73.94
24013;BME280;12220;50.194;18.948;2023-11-19T03:21:32;102158.48;;;1.10;73.95
24013;BME280;12220;50.194;18.948;2023-11-19T03:23:34;102161.20;;;1.09;73.92
24013;BME280;12220;50.194;18.948;2023-11-19T03:25:36;102158.51;;;1.07;73.89
24013;BME280;12220;50.194;18.948;2023-11-19T03:27:39;102139.64;;;1.06;73.91
24013;BME280;12220;50.194;18.948;2023-11-19T03:29:44;102130.68;;;1.03;73.88
24013;BME280;12220;50.194;18.948;2023-11-19T03:31:46;102134.28;;;1.02;73.94
24013;BME280;12220;50.194;18.948;2023-11-19T03:41:14;102140.50;;;1.12;74.16
24013;BME280;12220;50.194;18.948;2023-11-19T03:43:16;102131.46;;;1.15;74.13
24013;BME280;12220;50.194;18.948;2023-11-19T03:45:20;102126.02;;;1.18;74.15
24013;BME280;12220;50.194;18.948;2023-11-19T03:52:14;102089.99;;;1.25;74.07
24013;BME280;12220;50.194;18.948;2023-11-19T03:54:15;102084.61;;;1.24;74.05
24013;BME280;12220;50.194;18.948;2023-11-19T03:56:18;102087.33;;;1.22;73.86
24013;BME280;12220;50.194;18.948;2023-11-19T03:58:22;102080.19;;;1.19;73.80
24013;BME280;12220;50.194;18.948;2023-11-19T04:00:23;102084.64;;;1.20;73.90
24013;BME280;12220;50.194;18.948;2023-11-19T04:04:34;102071.19;;;1.17;73.66
24013;BME280;12220;50.194;18.948;2023-11-19T04:06:35;102070.34;;;1.14;73.53
24013;BME280;12220;50.194;18.948;2023-11-19T04:08:36;102061.38;;;1.09;73.44
24013;BME280;12220;50.194;18.948;2023-11-19T04:10:38;102063.23;;;1.05;73.47
24013;BME280;12220;50.194;18.948;2023-11-19T04:12:49;102057.85;;;1.00;73.63
24013;BME280;12220;50.194;18.948;2023-11-19T04:14:50;102066.90;;;0.96;73.75
24013;BME280;12220;50.194;18.948;2023-11-19T04:16:51;102067.80;;;0.95;73.85
24013;BME280;12220;50.194;18.948;2023-11-19T04:18:53;102078.59;;;0.95;73.90
24013;BME280;12220;50.194;18.948;2023-11-19T04:21:06;102077.70;;;0.96;74.01
24013;BME280;12220;50.194;18.948;2023-11-19T04:23:08;102111.83;;;0.97;74.11
24013;BME280;12220;50.194;18.948;2023-11-19T04:25:10;102072.27;;;0.99;74.11
24013;BME280;12220;50.194;18.948;2023-11-19T04:27:12;102064.16;;;1.01;74.13
24013;BME280;12220;50.194;18.948;2023-11-19T04:29:19;102060.55;;;1.03;74.11
24013;BME280;12220;50.194;18.948;2023-11-19T04:31:20;102055.15;;;1.03;74.08
24013;BME280;12220;50.194;18.948;2023-11-19T04:33:22;102049.76;;;1.03;74.11
24013;BME280;12220;50.194;18.948;2023-11-19T04:35:23;102047.04;;;1.05;74.12
24013;BME280;12220;50.194;18.948;2023-11-19T04:37:35;102039.81;;;1.07;74.16
24013;BME280;12220;50.194;18.948;2023-11-19T04:39:36;102040.70;;;1.08;74.18
24013;BME280;12220;50.194;18.948;2023-11-19T04:43:54;102034.39;;;1.09;74.17
24013;BME280;12220;50.194;18.948;2023-11-19T04:45:56;102029.91;;;1.08;74.18
24013;BME280;12220;50.194;18.948;2023-11-19T04:48:04;102016.42;;;1.08;74.21
24013;BME280;12220;50.194;18.948;2023-11-19T04:50:07;102037.09;;;1.09;74.26
24013;BME280;12220;50.194;18.948;2023-11-19T04:52:11;102037.98;;;1.09;74.26
24013;BME280;12220;50.194;18.948;2023-11-19T04:56:40;102030.77;;;1.11;74.24
24013;BME280;12220;50.194;18.948;2023-11-19T04:58:41;102028.09;;;1.11;74.27
24013;BME280;12220;50.194;18.948;2023-11-19T05:00:43;101730.59;;;-0.62;74.11
24013;BME280;12220;50.194;18.948;2023-11-19T05:02:44;102020.88;;;1.12;74.23
24013;BME280;12220;50.194;18.948;2023-11-19T05:04:48;102020.84;;;1.15;74.33
24013;BME280;12220;50.194;18.948;2023-11-19T05:06:50;102008.26;;;1.15;74.33
24013;BME280;12220;50.194;18.948;2023-11-19T05:08:51;101999.26;;;1.15;74.27
24013;BME280;12220;50.194;18.948;2023-11-19T05:10:53;101990.28;;;1.14;74.31
24013;BME280;12220;50.194;18.948;2023-11-19T05:13:03;101991.16;;;1.15;74.36
24013;BME280;12220;50.194;18.948;2023-11-19T05:15:05;101984.86;;;1.16;74.38
24013;BME280;12220;50.194;18.948;2023-11-19T05:17:06;101975.87;;;1.17;74.40
24013;BME280;12220;50.194;18.948;2023-11-19T05:19:08;101974.06;;;1.16;74.38
24013;BME280;12220;50.194;18.948;2023-11-19T05:21:18;101966.88;;;1.15;74.38
24013;BME280;12220;50.194;18.948;2023-11-19T05:23:19;101971.39;;;1.14;74.40
24013;BME280;12220;50.194;18.948;2023-11-19T05:25:22;101974.97;;;1.15;74.43
24013;BME280;12220;50.194;18.948;2023-11-19T05:27:23;101965.12;;;1.14;74.45
24013;BME280;12220;50.194;18.948;2023-11-19T05:29:34;101969.57;;;1.15;74.48
24013;BME280;12220;50.194;18.948;2023-11-19T05:31:38;101968.70;;;1.14;74.50
24013;BME280;12220;50.194;18.948;2023-11-19T05:33:39;101958.78;;;1.15;74.47
24013;BME280;12220;50.194;18.948;2023-11-19T05:35:41;101954.33;;;1.14;74.41
24013;BME280;12220;50.194;18.948;2023-11-19T05:37:48;101950.73;;;1.12;74.27
24013;BME280;12220;50.194;18.948;2023-11-19T05:39:51;101947.20;;;1.07;74.27
24013;BME280;12220;50.194;18.948;2023-11-19T05:44:11;101921.19;;;1.01;74.47
24013;BME280;12220;50.194;18.948;2023-11-19T05:46:12;101930.17;;;1.00;74.54
24013;BME280;12220;50.194;18.948;2023-11-19T05:48:14;101941.86;;;1.00;74.67
24013;BME280;12220;50.194;18.948;2023-11-19T05:50:15;101942.79;;;0.99;74.74
24013;BME280;12220;50.194;18.948;2023-11-19T05:52:17;101939.14;;;1.02;74.81
24013;BME280;12220;50.194;18.948;2023-11-19T05:54:20;101951.71;;;1.04;74.88
24013;BME280;12220;50.194;18.948;2023-11-19T05:56:22;101975.97;;;1.06;74.87
24013;BME280;12220;50.194;18.948;2023-11-19T05:58:27;101753.61;;;-0.27;74.63
24013;BME280;12220;50.194;18.948;2023-11-19T06:00:33;101966.98;;;1.07;74.74
24013;BME280;12220;50.194;18.948;2023-11-19T06:02:40;101959.78;;;1.06;74.75
24013;BME280;12220;50.194;18.948;2023-11-19T06:04:41;101972.37;;;1.07;74.90
24013;BME280;12220;50.194;18.948;2023-11-19T06:06:48;101973.25;;;1.08;75.05
24013;BME280;12220;50.194;18.948;2023-11-19T06:08:49;101959.76;;;1.08;75.10
24013;BME280;12220;50.194;18.948;2023-11-19T06:10:53;101957.04;;;1.09;75.14
24013;BME280;12220;50.194;18.948;2023-11-19T06:12:55;101956.16;;;1.09;75.16
24013;BME280;12220;50.194;18.948;2023-11-19T06:15:05;101957.95;;;1.11;75.25
24013;BME280;12220;50.194;18.948;2023-11-19T06:17:07;101952.56;;;1.10;75.26
24013;BME280;12220;50.194;18.948;2023-11-19T06:19:13;101957.04;;;1.12;75.36
24013;BME280;12220;50.194;18.948;2023-11-19T06:21:14;101955.23;;;1.13;75.45
24013;BME280;12220;50.194;18.948;2023-11-19T06:23:16;101948.93;;;1.14;75.46
24013;BME280;12220;50.194;18.948;2023-11-19T06:25:17;101928.22;;;1.14;75.49
24013;BME280;12220;50.194;18.948;2023-11-19T06:27:23;101923.71;;;1.15;75.53
24013;BME280;12220;50.194;18.948;2023-11-19T06:29:25;101868.40;;;0.78;75.56
24013;BME280;12220;50.194;18.948;2023-11-19T06:31:26;101923.69;;;1.16;75.70
24013;BME280;12220;50.194;18.948;2023-11-19T06:33:37;101918.29;;;1.16;75.77
24013;BME280;12220;50.194;18.948;2023-11-19T06:35:42;101900.32;;;1.17;75.82
24013;BME280;12220;50.194;18.948;2023-11-19T06:37:43;101893.11;;;1.17;75.90
24013;BME280;12220;50.194;18.948;2023-11-19T06:39:44;101885.90;;;1.18;75.97
24013;BME280;12220;50.194;18.948;2023-11-19T06:41:46;101888.59;;;1.18;76.05
24013;BME280;12220;50.194;18.948;2023-11-19T06:43:54;101883.21;;;1.19;76.17
24013;BME280;12220;50.194;18.948;2023-11-19T06:45:56;101889.48;;;1.20;76.23
24013;BME280;12220;50.194;18.948;2023-11-19T06:47:57;101893.03;;;1.24;76.39
24013;BME280;12220;50.194;18.948;2023-11-19T06:49:59;101885.79;;;1.27;76.46
24013;BME280;12220;50.194;18.948;2023-11-19T06:52:09;101881.23;;;1.31;76.55
24013;BME280;12220;50.194;18.948;2023-11-19T06:54:11;101883.02;;;1.33;76.59
24013;BME280;12220;50.194;18.948;2023-11-19T06:56:21;101873.97;;;1.37;76.65
24013;BME280;12220;50.194;18.948;2023-11-19T06:58:23;101879.31;;;1.41;76.70
24013;BME280;12220;50.194;18.948;2023-11-19T07:00:25;101877.47;;;1.43;76.72
24013;BME280;12220;50.194;18.948;2023-11-19T07:02:26;101868.48;;;1.44;76.74
24013;BME280;12220;50.194;18.948;2023-11-19T07:04:27;101871.17;;;1.44;76.81
24013;BME280;12220;50.194;18.948;2023-11-19T07:06:29;101418.35;;;-1.24;76.57
24013;BME280;12220;50.194;18.948;2023-11-19T07:08:43;101894.49;;;1.49;76.90
24013;BME280;12220;50.194;18.948;2023-11-19T07:10:47;101865.67;;;1.50;76.96
24013;BME280;12220;50.194;18.948;2023-11-19T07:12:49;101857.58;;;1.50;77.00
24013;BME280;12220;50.194;18.948;2023-11-19T07:14:51;101875.59;;;1.49;77.08
24013;BME280;12220;50.194;18.948;2023-11-19T07:16:55;101873.73;;;1.53;77.15
24013;BME280;12220;50.194;18.948;2023-11-19T07:21:23;101863.80;;;1.56;77.27
24013;BME280;12220;50.194;18.948;2023-11-19T07:25:40;101855.62;;;1.61;77.40
24013;BME280;12220;50.194;18.948;2023-11-19T07:27:45;101851.11;;;1.63;77.46
24013;BME280;12220;50.194;18.948;2023-11-19T07:29:49;101854.63;;;1.67;77.52
24013;BME280;12220;50.194;18.948;2023-11-19T07:31:51;101853.70;;;1.69;77.57
24013;BME280;12220;50.194;18.948;2023-11-19T07:33:55;101868.04;;;1.73;77.62
24013;BME280;12220;50.194;18.948;2023-11-19T07:35:56;101858.98;;;1.77;77.67
24013;BME280;12220;50.194;18.948;2023-11-19T07:37:58;101857.13;;;1.81;77.79
24013;BME280;12220;50.194;18.948;2023-11-19T07:40:01;101899.41;;;1.82;77.66
24013;BME280;12220;50.194;18.948;2023-11-19T07:42:10;101840.00;;;1.82;77.66
24013;BME280;12220;50.194;18.948;2023-11-19T07:44:11;101839.09;;;1.83;77.70
24013;BME280;12220;50.194;18.948;2023-11-19T07:46:16;101844.46;;;1.84;77.80
24013;BME280;12220;50.194;18.948;2023-11-19T07:48:20;101835.45;;;1.85;77.88
24013;BME280;12220;50.194;18.948;2023-11-19T07:50:25;101830.93;;;1.86;77.89
24013;BME280;12220;50.194;18.948;2023-11-19T07:52:27;101832.73;;;1.87;77.95
24013;BME280;12220;50.194;18.948;2023-11-19T07:54:29;101826.41;;;1.88;77.99
24013;BME280;12220;50.194;18.948;2023-11-19T07:56:34;101807.51;;;1.88;78.16
24013;BME280;12220;50.194;18.948;2023-11-19T07:58:40;101797.61;;;1.87;78.14
24013;BME280;12220;50.194;18.948;2023-11-19T08:00:42;101442.15;;;-0.17;78.03
24013;BME280;12220;50.194;18.948;2023-11-19T08:02:44;101794.85;;;1.90;78.33
24013;BME280;12220;50.194;18.948;2023-11-19T08:04:45;101781.32;;;1.91;78.43
24013;BME280;12220;50.194;18.948;2023-11-19T08:06:58;101774.98;;;1.94;78.50
24013;BME280;12220;50.194;18.948;2023-11-19T08:09:02;101767.75;;;1.95;78.61
24013;BME280;12220;50.194;18.948;2023-11-19T08:11:04;101769.51;;;1.97;78.70
24013;BME280;12220;50.194;18.948;2023-11-19T08:13:06;101783.84;;;2.01;78.76
24013;BME280;12220;50.194;18.948;2023-11-19T08:15:11;101782.88;;;2.05;78.80
24013;BME280;12220;50.194;18.948;2023-11-19T08:17:12;101778.33;;;2.08;78.86
24013;BME280;12220;50.194;18.948;2023-11-19T08:19:13;101776.47;;;2.11;78.87
24013;BME280;12220;50.194;18.948;2023-11-19T08:21:16;101787.23;;;2.14;78.94
24013;BME280;12220;50.194;18.948;2023-11-19T08:23:26;101787.16;;;2.17;78.99
24013;BME280;12220;50.194;18.948;2023-11-19T08:25:29;101782.64;;;2.19;79.01
24013;BME280;12220;50.194;18.948;2023-11-19T08:27:31;101784.37;;;2.23;79.03
24013;BME280;12220;50.194;18.948;2023-11-19T08:29:32;101783.42;;;2.24;79.03
24013;BME280;12220;50.194;18.948;2023-11-19T08:31:42;101778.87;;;2.28;79.00
24013;BME280;12220;50.194;18.948;2023-11-19T08:33:43;101768.95;;;2.28;78.98
24013;BME280;12220;50.194;18.948;2023-11-19T08:35:44;101759.01;;;2.29;78.96
24013;BME280;12220;50.194;18.948;2023-11-19T08:37:48;101755.39;;;2.30;78.95
24013;BME280;12220;50.194;18.948;2023-11-19T08:39:56;101753.60;;;2.30;78.97
24013;BME280;12220;50.194;18.948;2023-11-19T08:41:58;101750.91;;;2.30;79.00
24013;BME280;12220;50.194;18.948;2023-11-19T08:43:59;101762.56;;;2.32;78.99
24013;BME280;12220;50.194;18.948;2023-11-19T08:46:01;101749.04;;;2.32;79.02
24013;BME280;12220;50.194;18.948;2023-11-19T08:48:11;101752.60;;;2.34;79.00
24013;BME280;12220;50.194;18.948;2023-11-19T08:50:13;101765.23;;;2.34;79.01
24013;BME280;12220;50.194;18.948;2023-11-19T08:52:14;101770.61;;;2.35;79.04
24013;BME280;12220;50.194;18.948;2023-11-19T08:54:18;101756.14;;;2.38;79.08
24013;BME280;12220;50.194;18.948;2023-11-19T08:56:26;101747.12;;;2.37;79.10
24013;BME280;12220;50.194;18.948;2023-11-19T08:58:33;101750.74;;;2.38;79.17
24013;BME280;12220;50.194;18.948;2023-11-19T09:00:35;101745.27;;;2.41;79.21
24013;BME280;12220;50.194;18.948;2023-11-19T09:02:36;101735.34;;;2.41;79.26
24013;BME280;12220;50.194;18.948;2023-11-19T09:04:42;101721.85;;;2.40;79.33
24013;BME280;12220;50.194;18.948;2023-11-19T09:06:43;101722.73;;;2.42;79.37
24013;BME280;12220;50.194;18.948;2023-11-19T09:08:45;101713.67;;;2.43;79.47
24013;BME280;12220;50.194;18.948;2023-11-19T09:10:46;101698.37;;;2.43;79.50
24013;BME280;12220;50.194;18.948;2023-11-19T09:12:57;101696.51;;;2.46;79.51
24013;BME280;12220;50.194;18.948;2023-11-19T09:14:58;101691.09;;;2.46;79.57
24013;BME280;12220;50.194;18.948;2023-11-19T09:17:00;101692.92;;;2.45;79.65
24013;BME280;12220;50.194;18.948;2023-11-19T09:19:02;101706.37;;;2.48;79.69
24013;BME280;12220;50.194;18.948;2023-11-19T09:21:12;101742.34;;;2.52;79.71
24013;BME280;12220;50.194;18.948;2023-11-19T09:23:20;101708.91;;;2.56;79.81
24013;BME280;12220;50.194;18.948;2023-11-19T09:25:21;101697.09;;;2.60;79.82
24013;BME280;12220;50.194;18.948;2023-11-19T09:27:23;101697.95;;;2.64;79.80
24013;BME280;12220;50.194;18.948;2023-11-19T09:29:27;101687.90;;;2.69;79.76
24013;BME280;12220;50.194;18.948;2023-11-19T09:31:29;101686.95;;;2.71;79.76
24013;BME280;12220;50.194;18.948;2023-11-19T09:33:31;101675.18;;;2.74;79.77
24013;BME280;12220;50.194;18.948;2023-11-19T09:35:32;101678.73;;;2.76;79.75
24013;BME280;12220;50.194;18.948;2023-11-19T09:37:43;101599.40;;;2.36;79.68
24013;BME280;12220;50.194;18.948;2023-11-19T09:39:44;101651.56;;;2.81;79.80
24013;BME280;12220;50.194;18.948;2023-11-19T09:41:46;101657.85;;;2.83;79.87
24013;BME280;12220;50.194;18.948;2023-11-19T09:43:49;101380.33;;;1.25;79.75
24013;BME280;12220;50.194;18.948;2023-11-19T09:46:00;101640.59;;;2.87;79.96
24013;BME280;12220;50.194;18.948;2023-11-19T09:48:08;101627.02;;;2.90;80.02
24013;BME280;12220;50.194;18.948;2023-11-19T09:50:15;101626.90;;;2.94;80.03
24013;BME280;12220;50.194;18.948;2023-11-19T09:52:17;101620.50;;;2.97;80.05
24013;BME280;12220;50.194;18.948;2023-11-19T09:54:21;101615.01;;;3.02;80.09
24013;BME280;12220;50.194;18.948;2023-11-19T09:56:23;101611.27;;;3.06;80.12
24013;BME280;12220;50.194;18.948;2023-11-19T09:58:25;101603.98;;;3.09;80.19
24013;BME280;12220;50.194;18.948;2023-11-19T10:02:54;101603.73;;;3.19;80.23
24013;BME280;12220;50.194;18.948;2023-11-19T10:04:56;101584.66;;;3.25;80.25
24013;BME280;12220;50.194;18.948;2023-11-19T10:06:58;101579.99;;;3.30;80.25
24013;BME280;12220;50.194;18.948;2023-11-19T10:09:02;101578.95;;;3.36;80.26
24013;BME280;12220;50.194;18.948;2023-11-19T10:11:09;101527.67;;;2.95;80.19
24013;BME280;12220;50.194;18.948;2023-11-19T10:13:14;101570.55;;;3.45;80.19
24013;BME280;12220;50.194;18.948;2023-11-19T10:15:25;101565.05;;;3.49;80.17
24013;BME280;12220;50.194;18.948;2023-11-19T10:17:28;101567.62;;;3.54;80.13
24013;BME280;12220;50.194;18.948;2023-11-19T10:19:33;101559.31;;;3.60;80.16
24013;BME280;12220;50.194;18.948;2023-11-19T10:21:35;101542.01;;;3.66;80.13
24013;BME280;12220;50.194;18.948;2023-11-19T10:26:03;101543.52;;;3.76;80.04
24013;BME280;12220;50.194;18.948;2023-11-19T10:28:08;101538.84;;;3.81;79.99
24013;BME280;12220;50.194;18.948;2023-11-19T10:30:10;101539.66;;;3.85;79.95
24013;BME280;12220;50.194;18.948;2023-11-19T10:32:13;101532.30;;;3.89;79.90
24013;BME280;12220;50.194;18.948;2023-11-19T10:34:25;101528.58;;;3.93;79.82
24013;BME280;12220;50.194;18.948;2023-11-19T10:36:39;101526.68;;;3.96;79.78
24013;BME280;12220;50.194;18.948;2023-11-19T10:38:54;101528.37;;;4.00;79.76
24013;BME280;12220;50.194;18.948;2023-11-19T10:40:56;101528.22;;;4.05;79.71
24013;BME280;12220;50.194;18.948;2023-11-19T10:43:04;101516.31;;;4.11;79.66
24013;BME280;12220;50.194;18.948;2023-11-19T10:49:35;101495.10;;;4.24;79.44
24013;BME280;12220;50.194;18.948;2023-11-19T10:51:41;101486.90;;;4.27;79.28
24013;BME280;12220;50.194;18.948;2023-11-19T10:53:49;101487.73;;;4.29;79.14
24013;BME280;12220;50.194;18.948;2023-11-19T10:55:57;101488.60;;;4.29;78.93
24013;BME280;12220;50.194;18.948;2023-11-19T10:58:03;101486.79;;;4.30;78.71
24013;BME280;12220;50.194;18.948;2023-11-19T11:00:07;101478.77;;;4.27;78.59
24013;BME280;12220;50.194;18.948;2023-11-19T11:02:19;101488.65;;;4.28;78.50
24013;BME280;12220;50.194;18.948;2023-11-19T11:04:26;101485.89;;;4.29;78.60
24013;BME280;12220;50.194;18.948;2023-11-19T11:06:33;101480.45;;;4.29;78.55
24013;BME280;12220;50.194;18.948;2023-11-19T11:08:37;101474.99;;;4.31;78.49
24013;BME280;12220;50.194;18.948;2023-11-19T11:10:45;101465.98;;;4.30;78.38
24013;BME280;12220;50.194;18.948;2023-11-19T11:12:47;101467.76;;;4.31;78.50
24013;BME280;12220;50.194;18.948;2023-11-19T11:15:04;101474.06;;;4.32;78.55
24013;BME280;12220;50.194;18.948;2023-11-19T11:17:09;101461.37;;;4.34;78.61
24013;BME280;12220;50.194;18.948;2023-11-19T11:19:12;101463.97;;;4.37;78.77
24013;BME280;12220;50.194;18.948;2023-11-19T11:21:16;101453.95;;;4.39;78.81
24013;BME280;12220;50.194;18.948;2023-11-19T11:28:09;101439.52;;;4.39;78.73
24013;BME280;12220;50.194;18.948;2023-11-19T11:32:54;101430.95;;;4.24;78.44
24013;BME280;12220;50.194;18.948;2023-11-19T11:37:32;101430.34;;;4.14;78.58
24013;BME280;12220;50.194;18.948;2023-11-19T11:44:17;101417.93;;;4.07;78.63
24013;BME280;12220;50.194;18.948;2023-11-19T11:48:33;101402.89;;;3.97;78.63
24013;BME280;12220;50.194;18.948;2023-11-19T11:50:36;101402.12;;;3.93;78.67
24013;BME280;12220;50.194;18.948;2023-11-19T11:57:11;101397.89;;;3.84;78.78
24013;BME280;12220;50.194;18.948;2023-11-19T11:59:19;101396.05;;;3.85;78.84
24013;BME280;12220;50.194;18.948;2023-11-19T12:01:31;101387.00;;;3.86;78.95
24013;BME280;12220;50.194;18.948;2023-11-19T12:03:33;101384.34;;;3.84;78.96
24013;BME280;12220;50.194;18.948;2023-11-19T12:05:41;101387.97;;;3.83;78.88
24013;BME280;12220;50.194;18.948;2023-11-19T12:10:06;101385.32;;;3.82;78.89
24013;BME280;12220;50.194;18.948;2023-11-19T12:12:20;101371.82;;;3.80;78.97
24013;BME280;12220;50.194;18.948;2023-11-19T12:15:17;101370.91;;;3.80;78.91
24013;BME280;12220;50.194;18.948;2023-11-19T12:16:50;101371.92;;;3.77;78.89
24013;BME280;12220;50.194;18.948;2023-11-19T12:18:53;101373.77;;;3.75;78.94
24013;BME280;12220;50.194;18.948;2023-11-19T12:20:56;101364.73;;;3.76;78.96
24013;BME280;12220;50.194;18.948;2023-11-19T12:23:04;101361.14;;;3.76;79.00
24013;BME280;12220;50.194;18.948;2023-11-19T12:32:45;101336.76;;;3.76;79.07
24013;BME280;12220;50.194;18.948;2023-11-19T12:34:46;101348.47;;;3.76;79.10
24013;BME280;12220;50.194;18.948;2023-11-19T12:36:53;101336.70;;;3.77;79.07
24013;BME280;12220;50.194;18.948;2023-11-19T12:38:55;101331.34;;;3.76;79.12
24013;BME280;12220;50.194;18.948;2023-11-19T12:41:11;101323.21;;;3.76;79.13
24013;BME280;12220;50.194;18.948;2023-11-19T12:45:23;101321.53;;;3.72;79.22
24013;BME280;12220;50.194;18.948;2023-11-19T12:47:30;101326.05;;;3.71;79.28
24013;BME280;12220;50.194;18.948;2023-11-19T12:49:31;101332.38;;;3.72;79.31
24013;BME280;12220;50.194;18.948;2023-11-19T12:51:33;101316.17;;;3.70;79.22
24013;BME280;12220;50.194;18.948;2023-11-19T12:55:47;101295.38;;;3.71;79.46
24013;BME280;12220;50.194;18.948;2023-11-19T12:57:48;101299.01;;;3.70;79.61
24013;BME280;12220;50.194;18.948;2023-11-19T12:59:56;101292.67;;;3.71;79.62
24013;BME280;12220;50.194;18.948;2023-11-19T13:02:00;101296.26;;;3.71;79.68
24013;BME280;12220;50.194;18.948;2023-11-19T13:04:15;101303.39;;;3.74;79.78
24013;BME280;12220;50.194;18.948;2023-11-19T13:06:22;101300.63;;;3.75;79.68
24013;BME280;12220;50.194;18.948;2023-11-19T13:08:24;101298.77;;;3.77;79.79
24013;BME280;12220;50.194;18.948;2023-11-19T13:10:31;101296.89;;;3.79;79.90
24013;BME280;12220;50.194;18.948;2023-11-19T13:12:33;101297.82;;;3.78;80.06
24013;BME280;12220;50.194;18.948;2023-11-19T13:14:37;101301.38;;;3.80;80.01
24013;BME280;12220;50.194;18.948;2023-11-19T13:26:27;101275.60;;;3.95;80.25
24013;BME280;12220;50.194;18.948;2023-11-19T13:28:30;101286.27;;;4.00;80.31
24013;BME280;12220;50.194;18.948;2023-11-19T13:30:38;101278.95;;;4.04;80.25
24013;BME280;12220;50.194;18.948;2023-11-19T13:32:40;101268.91;;;4.06;80.32
24013;BME280;12220;50.194;18.948;2023-11-19T13:34:41;101265.23;;;4.08;80.38
24013;BME280;12220;50.194;18.948;2023-11-19T13:36:42;101265.05;;;4.13;80.41
24013;BME280;12220;50.194;18.948;2023-11-19T13:38:53;101259.64;;;4.13;80.54
24013;BME280;12220;50.194;18.948;2023-11-19T13:41:00;101255.09;;;4.13;80.53
24013;BME280;12220;50.194;18.948;2023-11-19T13:43:01;101258.66;;;4.15;80.55
24013;BME280;12220;50.194;18.948;2023-11-19T13:45:03;101261.24;;;4.18;80.66
24013;BME280;12220;50.194;18.948;2023-11-19T13:47:11;100986.68;;;2.67;80.57
24013;BME280;12220;50.194;18.948;2023-11-19T13:49:20;101255.54;;;4.26;80.81
24013;BME280;12220;50.194;18.948;2023-11-19T13:51:22;101251.84;;;4.29;80.82
24013;BME280;12220;50.194;18.948;2023-11-19T13:53:24;101255.38;;;4.31;80.81
24013;BME280;12220;50.194;18.948;2023-11-19T13:55:27;101248.03;;;4.34;80.87
24013;BME280;12220;50.194;18.948;2023-11-19T13:57:30;101239.84;;;4.36;81.08
24013;BME280;12220;50.194;18.948;2023-11-19T13:59:32;101238.00;;;4.36;81.36
24013;BME280;12220;50.194;18.948;2023-11-19T14:01:34;101257.78;;;4.40;81.27
24013;BME280;12220;50.194;18.948;2023-11-19T14:03:42;101251.30;;;4.44;81.38